Terminal Aerodrome Forecast
Issued by NWS

Home | Current Version | Previous Version | Text Only | Print | Product List | Glossary On
Versions: 1 2 3 4 5 6 7 8 9 10 11 12 13 14 15 16 17
000
FTUS44 KMAF 191100
TAFINK
TAF
KINK 191128Z 1912/2012 VRB04KT 6SM BR SCT005
      TEMPO 1913/1916 2SM BR OVC004
     FM191600 30005KT P6SM SKC=

USA.gov is the U.S. government's official web portal to all federal, state and local government web resources and services.